Heleylah, Iran
Current Conditions -  °F | °C
As of 9:00 PM on Tuesday 21 Oct 2014 (Local Time) from OIBB Reporting Station
Scattered Clouds Scattered Clouds  
Wind Chill: 82°   Ceiling: Unl
Heat Index: 82°   Visibility: 5mi
Dew Point: 59°   Wind: 14mph
Humidity: 45%   Direction: 340°NNW
Pressure: 29.91"   Gusts: NA
Location:  28.84°N, 50.89°E
Report Text: OIBB 211800Z 34012KT 8000 FEW040 SCT100 28/15 Q1013 A2993
Loading
Personal Weather Stations






























Interactive Weather Map
Tropical Storm Tracking
New forecast layout! Learn more

10-Day Weather Forecast

Advertisements
Track Severe Weather on mobile